createdAt,value
2022-09-22T00:01:31.575Z,99739.91
2022-09-22T00:04:03.876Z,99735.56
2022-09-22T00:06:39.107Z,99739.84
2022-09-22T00:09:11.110Z,99739.00
2022-09-22T00:11:42.750Z,99739.88
2022-09-22T00:14:20.892Z,99734.69
2022-09-22T00:16:53.686Z,99730.34
2022-09-22T00:19:23.962Z,99731.12
2022-09-22T00:21:52.376Z,99736.34
2022-09-22T00:24:24.686Z,99732.03
2022-09-22T00:26:57.506Z,99722.53
2022-09-22T00:29:26.629Z,99739.69
2022-09-22T00:31:55.195Z,99726.69
2022-09-22T00:34:25.130Z,99719.84
2022-09-22T00:36:53.386Z,99733.66
2022-09-22T00:39:21.970Z,99721.34
2022-09-22T00:41:52.134Z,99730.22
2022-09-22T00:44:30.022Z,99732.03
2022-09-22T00:47:06.876Z,99729.50
2022-09-22T00:49:40.432Z,99725.91
2022-09-22T00:52:08.884Z,99722.34
2022-09-22T00:54:37.098Z,99727.69
2022-09-22T00:57:07.290Z,99718.03
2022-09-22T00:59:35.644Z,99708.41
2022-09-22T01:02:03.510Z,99708.59
2022-09-22T01:04:31.319Z,99713.75
2022-09-22T01:06:59.782Z,99711.13
2022-09-22T01:09:28.515Z,99711.94
2022-09-22T01:11:56.188Z,99702.34
2022-09-22T01:14:41.423Z,99708.69
2022-09-22T01:17:32.147Z,99710.41
2022-09-22T01:20:25.918Z,99700.91
2022-09-22T01:23:17.405Z,99697.31
2022-09-22T01:26:14.502Z,99692.94
2022-09-22T01:28:54.194Z,99701.75
2022-09-22T01:31:38.793Z,99697.25
2022-09-22T01:34:15.983Z,99707.00
2022-09-22T01:37:09.583Z,99707.00
2022-09-22T01:40:02.728Z,99706.06
2022-09-22T01:42:37.327Z,99707.78
2022-09-22T01:45:26.337Z,99706.88
2022-09-22T01:47:57.898Z,99718.22
2022-09-22T01:50:29.066Z,99709.56
2022-09-22T01:53:00.998Z,99714.72
2022-09-22T01:55:32.520Z,99709.47
2022-09-22T01:58:03.986Z,99711.28
2022-09-22T02:00:32.860Z,99705.16
2022-09-22T02:03:14.889Z,99703.53
2022-09-22T02:05:47.006Z,99700.06
2022-09-22T02:08:36.787Z,99701.78
2022-09-22T02:11:12.241Z,99701.81
2022-09-22T02:13:40.961Z,99700.91
2022-09-22T02:16:10.101Z,99700.88
2022-09-22T02:18:46.845Z,99702.63
2022-09-22T02:21:15.759Z,99706.97
2022-09-22T02:23:45.053Z,99705.13
2022-09-22T02:26:13.871Z,99701.69
2022-09-22T02:28:43.526Z,99695.72
2022-09-22T02:31:20.125Z,99700.91
2022-09-22T02:33:48.584Z,99701.78
2022-09-22T02:36:26.043Z,99703.53
2022-09-22T02:39:10.047Z,99700.91
2022-09-22T02:42:04.722Z,99701.78
2022-09-22T02:44:54.878Z,99696.47
2022-09-22T02:47:32.661Z,99701.63
2022-09-22T02:50:01.080Z,99706.94
2022-09-22T02:52:29.907Z,99703.37
2022-09-22T02:54:57.502Z,99705.09
2022-09-22T02:57:25.427Z,99697.31
2022-09-22T02:59:53.097Z,99696.59
2022-09-22T03:02:20.661Z,99696.53
2022-09-22T03:04:49.197Z,99694.69
2022-09-22T03:07:16.855Z,99693.91
2022-09-22T03:09:44.495Z,99692.19
2022-09-22T03:12:12.422Z,99688.81
2022-09-22T03:14:40.188Z,99698.28
2022-09-22T03:17:07.866Z,99696.47
2022-09-22T03:19:36.001Z,99701.78
2022-09-22T03:22:03.707Z,99700.06
2022-09-22T03:24:31.788Z,99706.13
2022-09-22T03:27:00.012Z,99696.59
2022-09-22T03:29:27.792Z,99693.09
2022-09-22T03:31:55.436Z,99689.66
2022-09-22T03:34:23.280Z,99700.03
2022-09-22T03:36:50.991Z,99696.56
2022-09-22T03:39:18.589Z,99694.00
2022-09-22T03:41:46.828Z,99696.50
2022-09-22T03:44:14.634Z,99691.31
2022-09-22T03:46:42.301Z,99687.87
2022-09-22T03:49:10.266Z,99686.16
2022-09-22T03:51:37.864Z,99687.87
2022-09-22T03:54:05.640Z,99687.91
2022-09-22T03:56:33.750Z,99687.94
2022-09-22T03:59:01.450Z,99684.47
2022-09-22T04:01:30.055Z,99681.87
2022-09-22T04:03:58.339Z,99679.28
2022-09-22T04:06:26.037Z,99686.19
2022-09-22T04:08:53.700Z,99687.84
2022-09-22T04:11:21.824Z,99686.03
2022-09-22T04:13:49.381Z,99682.72
2022-09-22T04:16:17.563Z,99686.19
2022-09-22T04:18:45.618Z,99680.00
2022-09-22T04:21:13.465Z,99680.84
2022-09-22T04:23:41.331Z,99683.53
2022-09-22T04:26:09.314Z,99690.50
2022-09-22T04:28:36.951Z,99688.78
2022-09-22T04:31:04.659Z,99691.41
2022-09-22T04:33:32.926Z,99696.53
2022-09-22T04:36:00.645Z,99687.91
2022-09-22T04:38:28.691Z,99702.56
2022-09-22T04:40:57.458Z,99700.91
2022-09-22T04:43:24.961Z,99703.47
2022-09-22T04:45:52.559Z,99696.59
2022-09-22T04:48:20.842Z,99704.37
2022-09-22T04:50:48.528Z,99701.75
2022-09-22T04:53:16.154Z,99699.19
2022-09-22T04:55:44.087Z,99700.00
2022-09-22T04:58:11.713Z,99698.31
2022-09-22T05:00:39.360Z,99706.03
2022-09-22T05:03:12.329Z,99701.75
2022-09-22T05:05:40.086Z,99695.72
2022-09-22T05:08:08.238Z,99694.84
2022-09-22T05:10:36.881Z,99693.12
2022-09-22T05:13:04.696Z,99693.16
2022-09-22T05:15:34.742Z,99695.69
2022-09-22T05:18:02.482Z,99694.75
2022-09-22T05:20:32.335Z,99698.06
2022-09-22T05:23:00.623Z,99703.19
2022-09-22T05:25:28.152Z,99699.53
2022-09-22T05:27:56.850Z,99693.00
2022-09-22T05:30:26.406Z,99689.44
2022-09-22T05:32:54.003Z,99689.31
2022-09-22T05:35:23.662Z,99684.25
2022-09-22T05:37:52.561Z,99689.81
2022-09-22T05:40:24.167Z,99697.38
2022-09-22T05:42:53.147Z,99696.78
2022-09-22T05:45:21.724Z,99698.00
2022-09-22T05:47:49.340Z,99701.09
2022-09-22T05:50:20.068Z,99703.41
2022-09-22T05:52:47.780Z,99707.47
2022-09-22T05:55:15.723Z,99703.06
2022-09-22T05:57:44.075Z,99701.69
2022-09-22T06:00:13.396Z,99699.41
2022-09-22T06:02:43.687Z,99699.72
2022-09-22T06:05:11.497Z,99697.22
2022-09-22T06:07:39.850Z,99704.75
2022-09-22T06:10:10.519Z,99705.13
2022-09-22T06:12:38.654Z,99706.97
2022-09-22T06:15:07.209Z,99717.44
2022-09-22T06:17:35.244Z,99719.84
2022-09-22T06:20:03.301Z,99715.84
2022-09-22T06:22:31.093Z,99711.16
2022-09-22T06:24:59.380Z,99716.22
2022-09-22T06:27:27.280Z,99722.88
2022-09-22T06:29:55.406Z,99714.50
2022-09-22T06:32:23.685Z,99715.50
2022-09-22T06:34:51.373Z,99722.06
2022-09-22T06:37:20.388Z,99715.34
2022-09-22T06:39:48.308Z,99718.00
2022-09-22T06:42:17.417Z,99713.03
2022-09-22T06:44:45.552Z,99717.19
2022-09-22T06:47:13.647Z,99721.63
2022-09-22T06:49:42.916Z,99709.50
2022-09-22T06:52:13.808Z,99712.44
2022-09-22T06:54:42.904Z,99716.34
2022-09-22T06:57:11.659Z,99723.59
2022-09-22T06:59:40.883Z,99722.59
2022-09-22T07:02:10.092Z,99722.31
2022-09-22T07:04:37.819Z,99723.00
2022-09-22T07:07:05.414Z,99725.31
2022-09-22T07:09:33.296Z,99722.81
2022-09-22T07:12:01.128Z,99711.87
2022-09-22T07:14:29.776Z,99717.03
2022-09-22T07:16:57.818Z,99716.44
2022-09-22T07:19:25.621Z,99711.81
2022-09-22T07:21:53.193Z,99712.09
2022-09-22T07:24:21.401Z,99715.16
2022-09-22T07:26:50.159Z,99717.88
2022-09-22T07:29:17.964Z,99719.00
2022-09-22T07:31:45.959Z,99719.91
2022-09-22T07:34:14.325Z,99709.47
2022-09-22T07:36:42.125Z,99721.97
2022-09-22T07:39:12.797Z,99721.41
2022-09-22T07:41:44.023Z,99719.91
2022-09-22T07:44:32.264Z,99722.53
2022-09-22T07:47:01.006Z,99730.62
2022-09-22T07:49:29.608Z,99733.59
2022-09-22T07:51:57.805Z,99734.37
2022-09-22T07:54:26.648Z,99731.97
2022-09-22T07:56:58.899Z,99725.81
2022-09-22T07:59:27.367Z,99721.41
2022-09-22T08:01:55.876Z,99720.63
2022-09-22T08:04:24.515Z,99727.84
2022-09-22T08:06:55.827Z,99727.72
2022-09-22T08:09:25.291Z,99727.81
2022-09-22T08:11:53.616Z,99733.75
2022-09-22T08:14:23.183Z,99736.00
2022-09-22T08:16:52.063Z,99733.25
2022-09-22T08:19:20.259Z,99736.16
2022-09-22T08:21:50.017Z,99736.16
2022-09-22T08:24:22.959Z,99738.38
2022-09-22T08:26:53.159Z,99733.78
2022-09-22T08:29:22.263Z,99735.56
2022-09-22T08:31:51.582Z,99737.19
2022-09-22T08:34:20.265Z,99735.16
2022-09-22T08:36:48.974Z,99736.91
2022-09-22T08:39:18.054Z,99741.87
2022-09-22T08:41:57.001Z,99729.94
2022-09-22T08:44:32.944Z,99731.69
2022-09-22T08:47:01.652Z,99732.69
2022-09-22T08:49:52.214Z,99730.34
2022-09-22T08:52:35.226Z,99729.88
2022-09-22T08:55:03.556Z,99729.81
2022-09-22T08:58:02.157Z,99729.03
2022-09-22T09:00:39.172Z,99727.53
2022-09-22T09:03:25.046Z,99725.00
2022-09-22T09:06:01.551Z,99723.38
2022-09-22T09:08:33.370Z,99717.47
2022-09-22T09:11:26.488Z,99724.06
2022-09-22T09:14:13.900Z,99722.88
2022-09-22T09:16:46.914Z,99725.44
2022-09-22T09:19:37.974Z,99719.87
2022-09-22T09:22:25.395Z,99726.56
2022-09-22T09:28:01.019Z,99717.03
2022-09-22T09:30:34.353Z,99717.00
2022-09-22T09:33:04.773Z,99718.06
2022-09-22T09:35:53.827Z,99713.34
2022-09-22T09:38:31.533Z,99718.28
2022-09-22T09:41:08.315Z,99717.63
2022-09-22T09:43:37.231Z,99724.19
2022-09-22T09:46:11.881Z,99713.63
2022-09-22T09:49:16.894Z,99721.03
2022-09-22T09:51:50.020Z,99719.63
2022-09-22T09:54:19.076Z,99727.16
2022-09-22T09:57:05.350Z,99726.47
2022-09-22T09:59:53.074Z,99718.19
2022-09-22T10:02:32.703Z,99714.31
2022-09-22T10:05:03.436Z,99715.47
2022-09-22T10:07:41.038Z,99713.09
2022-09-22T10:10:36.920Z,99720.56
2022-09-22T10:13:18.346Z,99714.84
2022-09-22T10:16:07.020Z,99718.63
2022-09-22T10:18:44.049Z,99718.78
2022-09-22T10:21:19.698Z,99718.94
2022-09-22T10:24:09.744Z,99718.44
2022-09-22T10:26:55.276Z,99721.00
2022-09-22T10:29:24.382Z,99715.56
2022-09-22T10:32:15.413Z,99725.13
2022-09-22T10:37:21.324Z,99717.03
2022-09-22T10:39:54.068Z,99713.91
2022-09-22T10:42:33.497Z,99707.81
2022-09-22T10:45:05.270Z,99711.84
2022-09-22T10:47:43.508Z,99707.78
2022-09-22T10:50:41.468Z,99710.56
2022-09-22T10:53:25.748Z,99702.34
2022-09-22T10:56:15.013Z,99703.72
2022-09-22T10:58:43.003Z,99700.00
2022-09-22T11:01:26.997Z,99690.53
2022-09-22T11:04:14.407Z,99695.63
2022-09-22T11:07:13.057Z,99687.16
2022-09-22T11:10:06.342Z,99684.09
2022-09-22T11:12:53.691Z,99679.31
2022-09-22T11:15:40.092Z,99674.38
2022-09-22T11:18:39.543Z,99675.63
2022-09-22T11:21:13.866Z,99675.63
2022-09-22T11:23:55.071Z,99671.25
2022-09-22T11:27:01.462Z,99662.59
2022-09-22T11:29:45.446Z,99668.84
2022-09-22T11:32:36.534Z,99659.78
2022-09-22T11:35:32.182Z,99658.44
2022-09-22T11:38:28.600Z,99654.03
2022-09-22T11:41:10.565Z,99646.00
2022-09-22T11:43:41.840Z,99649.22
2022-09-22T11:46:13.235Z,99642.56
2022-09-22T11:48:47.280Z,99641.19
2022-09-22T11:51:33.656Z,99633.94
2022-09-22T11:54:26.794Z,99632.59
2022-09-22T11:57:02.253Z,99619.44
2022-09-22T11:59:52.002Z,99615.00
2022-09-22T12:02:31.794Z,99619.78
2022-09-22T12:05:03.454Z,99616.19
2022-09-22T12:07:45.043Z,99619.09
2022-09-22T12:10:20.685Z,99609.88
2022-09-22T12:12:51.070Z,99609.12
2022-09-22T12:15:35.681Z,99612.00
2022-09-22T12:18:10.041Z,99608.03
2022-09-22T12:20:41.266Z,99614.06
2022-09-22T12:23:09.160Z,99606.06
2022-09-22T12:25:49.393Z,99605.06
2022-09-22T12:28:20.923Z,99610.88
2022-09-22T12:31:07.394Z,99613.28
2022-09-22T12:33:36.314Z,99613.41
2022-09-22T12:36:04.773Z,99604.63
2022-09-22T12:38:33.032Z,99609.56
2022-09-22T12:41:04.238Z,99615.41
2022-09-22T12:43:33.627Z,99606.97
2022-09-22T12:46:06.248Z,99611.03
2022-09-22T12:48:36.610Z,99612.25
2022-09-22T12:51:16.832Z,99608.69
2022-09-22T12:53:44.668Z,99603.31
2022-09-22T12:56:42.854Z,99592.03
2022-09-22T12:59:38.559Z,99605.31
2022-09-22T13:02:18.722Z,99605.03
2022-09-22T13:04:49.446Z,99604.34
2022-09-22T13:07:44.117Z,99594.75
2022-09-22T13:10:27.416Z,99600.69
2022-09-22T13:13:01.144Z,99601.97
2022-09-22T13:15:29.567Z,99598.44
2022-09-22T13:17:58.265Z,99585.53
2022-09-22T13:20:32.435Z,99588.25
2022-09-22T13:23:11.738Z,99591.91
2022-09-22T13:25:40.365Z,99591.97
2022-09-22T13:28:08.279Z,99595.59
2022-09-22T13:30:37.802Z,99592.84
2022-09-22T13:33:06.208Z,99584.06
2022-09-22T13:35:39.351Z,99579.56
2022-09-22T13:38:07.454Z,99579.03
2022-09-22T13:40:35.728Z,99579.22
2022-09-22T13:43:07.733Z,99582.34
2022-09-22T13:45:36.384Z,99571.81
2022-09-22T13:48:10.453Z,99572.50
2022-09-22T13:50:50.151Z,99573.53
2022-09-22T13:53:19.547Z,99563.44
2022-09-22T13:55:51.921Z,99569.94
2022-09-22T13:58:24.562Z,99568.06
2022-09-22T14:01:13.164Z,99562.44
2022-09-22T14:03:42.323Z,99573.13
2022-09-22T14:06:16.492Z,99571.28
2022-09-22T14:08:46.504Z,99567.09
2022-09-22T14:11:19.592Z,99556.19
2022-09-22T14:13:54.410Z,99558.22
2022-09-22T14:16:45.928Z,99555.06
2022-09-22T14:19:17.921Z,99553.50
2022-09-22T14:21:52.890Z,99560.59
2022-09-22T14:24:20.999Z,99563.94
2022-09-22T14:26:54.053Z,99563.16
2022-09-22T14:29:27.297Z,99559.44
2022-09-22T14:32:35.490Z,99555.81
2022-09-22T14:35:07.617Z,99559.50
2022-09-22T14:37:41.368Z,99555.09
2022-09-22T14:40:22.226Z,99556.19
2022-09-22T14:43:00.877Z,99553.25
2022-09-22T14:45:32.140Z,99546.44
2022-09-22T14:48:33.049Z,99542.34
2022-09-22T14:51:02.324Z,99547.53
2022-09-22T14:53:41.387Z,99543.87
2022-09-22T14:56:18.423Z,99548.91
2022-09-22T14:58:51.215Z,99538.47
2022-09-22T15:01:46.126Z,99543.25
2022-09-22T15:04:13.701Z,99552.72
2022-09-22T15:06:43.108Z,99541.75
2022-09-22T15:09:37.933Z,99542.53
2022-09-22T15:12:06.653Z,99543.03
2022-09-22T15:14:40.852Z,99546.63
2022-09-22T15:17:53.728Z,99558.81
2022-09-22T15:20:32.824Z,99566.81
2022-09-22T15:23:02.101Z,99568.09
2022-09-22T15:25:30.860Z,99565.50
2022-09-22T15:27:59.379Z,99569.00
2022-09-22T15:30:32.286Z,99573.00
2022-09-22T15:32:59.867Z,99573.00
2022-09-22T15:35:31.686Z,99573.38
2022-09-22T15:38:01.190Z,99575.34
2022-09-22T15:40:30.029Z,99582.16
2022-09-22T15:43:12.166Z,99573.50
2022-09-22T15:45:48.111Z,99576.84
2022-09-22T15:48:25.746Z,99567.50
2022-09-22T15:50:55.558Z,99573.19
2022-09-22T15:53:23.989Z,99573.50
2022-09-22T15:55:53.202Z,99573.59
2022-09-22T15:58:23.386Z,99571.31
2022-09-22T16:00:52.693Z,99571.19
2022-09-22T16:03:23.917Z,99576.97
2022-09-22T16:05:56.856Z,99578.16
2022-09-22T16:08:44.061Z,99570.28
2022-09-22T16:11:16.186Z,99577.84
2022-09-22T16:13:44.690Z,99572.56
2022-09-22T16:16:12.829Z,99573.25
2022-09-22T16:18:42.185Z,99574.59
2022-09-22T16:21:23.743Z,99578.59
2022-09-22T16:23:53.683Z,99581.84
2022-09-22T16:26:22.715Z,99584.78
2022-09-22T16:28:51.464Z,99585.28
2022-09-22T16:31:20.178Z,99589.87
2022-09-22T16:33:54.163Z,99586.94
2022-09-22T16:36:23.739Z,99584.88
2022-09-22T16:38:52.313Z,99593.50
2022-09-22T16:41:29.894Z,99594.00
2022-09-22T16:43:58.394Z,99592.44
2022-09-22T16:46:27.038Z,99595.72
2022-09-22T16:49:10.052Z,99592.06
2022-09-22T16:51:41.106Z,99591.97
2022-09-22T16:54:13.304Z,99596.69
2022-09-22T16:56:49.838Z,99593.91
2022-09-22T16:59:22.624Z,99602.44
2022-09-22T17:01:52.271Z,99600.91
2022-09-22T17:04:20.191Z,99603.34
2022-09-22T17:06:48.384Z,99600.78
2022-09-22T17:09:17.262Z,99605.47
2022-09-22T17:11:46.552Z,99612.22
2022-09-22T17:14:25.720Z,99607.69
2022-09-22T17:16:56.690Z,99612.91
2022-09-22T17:19:27.043Z,99618.09
2022-09-22T17:21:56.101Z,99620.19
2022-09-22T17:24:25.476Z,99622.41
2022-09-22T17:26:54.963Z,99622.41
2022-09-22T17:29:28.408Z,99623.06
2022-09-22T17:32:03.300Z,99625.75
2022-09-22T17:34:33.392Z,99628.59
2022-09-22T17:37:01.738Z,99636.41
2022-09-22T17:39:30.474Z,99636.59
2022-09-22T17:41:58.970Z,99640.63
2022-09-22T17:44:29.292Z,99644.44
2022-09-22T17:47:15.521Z,99639.28
2022-09-22T17:50:02.760Z,99644.00
2022-09-22T17:52:48.889Z,99641.63
2022-09-22T17:55:22.354Z,99640.28
2022-09-22T17:57:52.817Z,99641.78
2022-09-22T18:00:22.248Z,99643.28
2022-09-22T18:02:52.842Z,99644.25
2022-09-22T18:05:25.591Z,99649.06
2022-09-22T18:07:58.665Z,99650.47
2022-09-22T18:10:33.501Z,99649.94
2022-09-22T18:13:04.695Z,99651.88
2022-09-22T18:15:36.338Z,99646.09
2022-09-22T18:18:06.937Z,99651.78
2022-09-22T18:20:36.037Z,99652.44
2022-09-22T18:23:06.350Z,99657.69
2022-09-22T18:25:35.959Z,99658.97
2022-09-22T18:28:05.824Z,99663.56
2022-09-22T18:30:34.873Z,99661.62
2022-09-22T18:33:04.947Z,99661.88
2022-09-22T18:35:33.842Z,99668.31
2022-09-22T18:38:03.384Z,99661.56
2022-09-22T18:40:34.600Z,99665.31
2022-09-22T18:43:03.692Z,99667.69
2022-09-22T18:45:39.064Z,99671.00
2022-09-22T18:48:09.403Z,99666.59
2022-09-22T18:50:38.295Z,99674.19
2022-09-22T18:53:10.080Z,99677.41
2022-09-22T18:55:38.687Z,99686.44
2022-09-22T18:58:06.584Z,99681.37
2022-09-22T19:00:34.475Z,99674.66
2022-09-22T19:03:02.626Z,99674.53
2022-09-22T19:05:30.413Z,99675.81
2022-09-22T19:08:00.920Z,99674.84
2022-09-22T19:10:29.043Z,99672.91
2022-09-22T19:12:57.102Z,99673.41
2022-09-22T19:15:25.827Z,99668.69
2022-09-22T19:17:54.056Z,99670.12
2022-09-22T19:20:24.140Z,99671.34
2022-09-22T19:22:54.058Z,99668.22
2022-09-22T19:25:22.754Z,99669.44
2022-09-22T19:27:52.722Z,99667.88
2022-09-22T19:30:23.959Z,99662.41
2022-09-22T19:32:52.904Z,99666.06
2022-09-22T19:35:21.294Z,99662.56
2022-09-22T19:37:51.922Z,99668.94
2022-09-22T19:40:24.808Z,99669.38
2022-09-22T19:42:53.774Z,99665.87
2022-09-22T19:45:24.037Z,99661.19
2022-09-22T19:47:53.393Z,99668.06
2022-09-22T19:50:21.452Z,99667.09
2022-09-22T19:52:49.354Z,99671.06
2022-09-22T19:55:20.910Z,99666.53
2022-09-22T19:57:54.362Z,99669.41
2022-09-22T20:00:26.416Z,99675.97
2022-09-22T20:02:59.057Z,99674.25
2022-09-22T20:05:30.212Z,99675.41
2022-09-22T20:07:58.352Z,99679.69
2022-09-22T20:10:26.044Z,99678.84
2022-09-22T20:12:53.924Z,99680.69
2022-09-22T20:15:22.103Z,99682.13
2022-09-22T20:17:49.860Z,99687.69
2022-09-22T20:20:20.750Z,99691.16
2022-09-22T20:22:54.695Z,99689.56
2022-09-22T20:25:27.794Z,99692.28
2022-09-22T20:27:56.302Z,99692.22
2022-09-22T20:30:24.472Z,99690.56
2022-09-22T20:32:52.434Z,99693.12
2022-09-22T20:35:22.004Z,99693.97
2022-09-22T20:37:51.726Z,99690.47
2022-09-22T20:40:21.409Z,99688.69
2022-09-22T20:42:50.973Z,99688.75
2022-09-22T20:45:21.010Z,99686.84
2022-09-22T20:47:49.933Z,99687.94
2022-09-22T20:50:17.604Z,99693.03
2022-09-22T20:52:45.264Z,99682.59
2022-09-22T20:55:13.334Z,99691.22
2022-09-22T20:57:41.453Z,99688.75
2022-09-22T21:00:10.043Z,99687.03
2022-09-22T21:02:38.624Z,99691.31
2022-09-22T21:05:06.495Z,99687.03
2022-09-22T21:07:34.193Z,99687.00
2022-09-22T21:10:21.057Z,99685.22
2022-09-22T21:12:50.897Z,99682.59
2022-09-22T21:15:20.004Z,99687.69
2022-09-22T21:17:48.744Z,99687.87
2022-09-22T21:20:16.305Z,99688.75
2022-09-22T21:22:44.633Z,99683.59
2022-09-22T21:25:12.326Z,99687.03
2022-09-22T21:27:39.923Z,99680.13
2022-09-22T21:30:08.371Z,99682.69
2022-09-22T21:32:36.065Z,99692.00
2022-09-22T21:35:03.904Z,99686.84
2022-09-22T21:37:32.024Z,99687.69
2022-09-22T21:39:59.964Z,99686.91
2022-09-22T21:42:27.856Z,99680.00
2022-09-22T21:44:55.834Z,99688.69
2022-09-22T21:47:23.526Z,99680.87
2022-09-22T21:49:51.346Z,99675.53
2022-09-22T21:52:19.267Z,99682.50
2022-09-22T21:54:47.017Z,99673.87
2022-09-22T21:57:14.604Z,99679.69
2022-09-22T21:59:42.544Z,99682.28
2022-09-22T22:02:10.249Z,99678.84
2022-09-22T22:04:38.330Z,99677.00
2022-09-22T22:07:06.242Z,99681.22
2022-09-22T22:09:33.964Z,99674.41
2022-09-22T22:12:02.465Z,99670.78
2022-09-22T22:14:33.572Z,99668.22
2022-09-22T22:17:03.983Z,99675.53
2022-09-22T22:19:32.128Z,99670.44
2022-09-22T22:21:59.703Z,99675.59
2022-09-22T22:24:43.552Z,99670.41
2022-09-22T22:27:11.503Z,99670.50
2022-09-22T22:29:39.673Z,99667.53
2022-09-22T22:32:09.334Z,99661.78
2022-09-22T22:34:37.843Z,99660.94
2022-09-22T22:37:09.717Z,99660.16
2022-09-22T22:39:38.124Z,99664.53
2022-09-22T22:42:06.344Z,99660.16
2022-09-22T22:44:35.312Z,99665.44
2022-09-22T22:47:03.543Z,99661.91
2022-09-22T22:49:31.476Z,99658.34
2022-09-22T22:51:59.322Z,99657.53
2022-09-22T22:54:27.314Z,99660.19
2022-09-22T22:56:54.944Z,99658.47
2022-09-22T22:59:22.526Z,99659.28
2022-09-22T23:01:50.491Z,99661.03
2022-09-22T23:04:18.132Z,99655.88
2022-09-22T23:06:47.432Z,99658.25
2022-09-22T23:09:16.668Z,99659.28
2022-09-22T23:11:45.963Z,99657.59
2022-09-22T23:14:16.125Z,99648.88
2022-09-22T23:16:46.595Z,99643.78
2022-09-22T23:19:16.984Z,99644.63
2022-09-22T23:21:46.021Z,99642.81
2022-09-22T23:24:16.336Z,99655.91
2022-09-22T23:26:45.717Z,99647.94
2022-09-22T23:29:14.135Z,99653.09
2022-09-22T23:31:42.128Z,99648.06
2022-09-22T23:34:09.888Z,99643.75
2022-09-22T23:36:39.698Z,99638.53
2022-09-22T23:39:07.558Z,99633.38
2022-09-22T23:41:36.811Z,99639.28
2022-09-22T23:44:08.809Z,99640.66
2022-09-22T23:46:38.422Z,99635.91
2022-09-22T23:49:06.802Z,99633.25
2022-09-22T23:51:34.580Z,99640.28
2022-09-22T23:54:02.626Z,99647.78
2022-09-22T23:56:30.635Z,99640.94
2022-09-22T23:58:58.329Z,99645.75
